sensor_id;sensor_type;location;lat;lon;timestamp;temperature;humidity
16384;DHT22;8301;51.440;6.610;2022-07-29T00:01:58;19.40;99.90
16384;DHT22;8301;51.440;6.610;2022-07-29T00:04:24;19.40;99.90
16384;DHT22;8301;51.440;6.610;2022-07-29T00:06:51;19.40;99.90
16384;DHT22;8301;51.440;6.610;2022-07-29T00:09:18;19.30;99.90
16384;DHT22;8301;51.440;6.610;2022-07-29T00:11:45;19.30;99.90
16384;DHT22;8301;51.440;6.610;2022-07-29T00:14:12;19.30;99.90
16384;DHT22;8301;51.440;6.610;2022-07-29T00:16:39;19.30;99.90
16384;DHT22;8301;51.440;6.610;2022-07-29T00:19:05;19.30;99.90
16384;DHT22;8301;51.440;6.610;2022-07-29T00:21:32;19.30;99.90
16384;DHT22;8301;51.440;6.610;2022-07-29T00:24:05;19.30;99.90
16384;DHT22;8301;51.440;6.610;2022-07-29T00:26:32;19.30;99.90
16384;DHT22;8301;51.440;6.610;2022-07-29T00:28:59;19.30;99.90
16384;DHT22;8301;51.440;6.610;2022-07-29T00:31:26;19.30;99.90
16384;DHT22;8301;51.440;6.610;2022-07-29T00:33:53;19.30;99.90
16384;DHT22;8301;51.440;6.610;2022-07-29T00:36:20;19.20;99.90
16384;DHT22;8301;51.440;6.610;2022-07-29T00:38:51;19.20;99.90
16384;DHT22;8301;51.440;6.610;2022-07-29T00:41:18;19.20;99.90
16384;DHT22;8301;51.440;6.610;2022-07-29T00:43:46;19.20;99.90
16384;DHT22;8301;51.440;6.610;2022-07-29T00:46:21;19.20;99.90
16384;DHT22;8301;51.440;6.610;2022-07-29T00:48:48;19.10;99.90
16384;DHT22;8301;51.440;6.610;2022-07-29T00:51:15;19.10;99.90
16384;DHT22;8301;51.440;6.610;2022-07-29T00:53:54;19.10;99.90
16384;DHT22;8301;51.440;6.610;2022-07-29T00:56:22;19.10;99.90
16384;DHT22;8301;51.440;6.610;2022-07-29T00:58:49;19.10;99.90
16384;DHT22;8301;51.440;6.610;2022-07-29T01:01:17;19.10;99.90
16384;DHT22;8301;51.440;6.610;2022-07-29T01:03:44;19.10;99.90
16384;DHT22;8301;51.440;6.610;2022-07-29T01:06:10;19.00;99.90
16384;DHT22;8301;51.440;6.610;2022-07-29T01:08:37;19.00;99.90
16384;DHT22;8301;51.440;6.610;2022-07-29T01:11:05;18.90;99.90
16384;DHT22;8301;51.440;6.610;2022-07-29T01:13:33;18.90;99.90
16384;DHT22;8301;51.440;6.610;2022-07-29T01:16:02;18.90;99.90
16384;DHT22;8301;51.440;6.610;2022-07-29T01:18:30;18.90;99.90
16384;DHT22;8301;51.440;6.610;2022-07-29T01:31:17;18.90;99.90
16384;DHT22;8301;51.440;6.610;2022-07-29T01:33:45;18.90;99.90
16384;DHT22;8301;51.440;6.610;2022-07-29T01:36:27;18.90;99.90
16384;DHT22;8301;51.440;6.610;2022-07-29T01:39:02;18.90;99.90
16384;DHT22;8301;51.440;6.610;2022-07-29T01:41:18;18.90;99.90
16384;DHT22;8301;51.440;6.610;2022-07-29T01:43:51;18.90;99.90
16384;DHT22;8301;51.440;6.610;2022-07-29T01:46:25;18.80;99.90
16384;DHT22;8301;51.440;6.610;2022-07-29T01:49:01;18.80;99.90
16384;DHT22;8301;51.440;6.610;2022-07-29T01:51:25;18.80;99.90
16384;DHT22;8301;51.440;6.610;2022-07-29T01:53:59;18.80;99.90
16384;DHT22;8301;51.440;6.610;2022-07-29T01:56:24;18.80;99.90
16384;DHT22;8301;51.440;6.610;2022-07-29T01:58:54;18.80;99.90
16384;DHT22;8301;51.440;6.610;2022-07-29T02:01:21;18.70;99.90
16384;DHT22;8301;51.440;6.610;2022-07-29T02:03:49;18.60;99.90
16384;DHT22;8301;51.440;6.610;2022-07-29T02:06:17;18.60;99.90
16384;DHT22;8301;51.440;6.610;2022-07-29T02:08:45;18.60;99.90
16384;DHT22;8301;51.440;6.610;2022-07-29T02:11:13;18.60;99.90
16384;DHT22;8301;51.440;6.610;2022-07-29T02:13:40;18.50;99.90
16384;DHT22;8301;51.440;6.610;2022-07-29T02:16:07;18.30;99.90
16384;DHT22;8301;51.440;6.610;2022-07-29T02:18:35;18.20;99.90
16384;DHT22;8301;51.440;6.610;2022-07-29T02:21:03;18.10;99.90
16384;DHT22;8301;51.440;6.610;2022-07-29T02:23:30;18.10;99.90
16384;DHT22;8301;51.440;6.610;2022-07-29T02:25:57;18.10;99.90
16384;DHT22;8301;51.440;6.610;2022-07-29T02:28:27;18.10;99.90
16384;DHT22;8301;51.440;6.610;2022-07-29T02:30:55;18.00;99.90
16384;DHT22;8301;51.440;6.610;2022-07-29T02:33:22;18.00;99.90
16384;DHT22;8301;51.440;6.610;2022-07-29T02:35:50;17.90;99.90
16384;DHT22;8301;51.440;6.610;2022-07-29T02:38:18;17.80;99.90
16384;DHT22;8301;51.440;6.610;2022-07-29T02:41:12;17.70;99.90
16384;DHT22;8301;51.440;6.610;2022-07-29T02:43:40;17.60;99.90
16384;DHT22;8301;51.440;6.610;2022-07-29T02:46:09;17.50;99.90
16384;DHT22;8301;51.440;6.610;2022-07-29T02:48:41;17.50;99.90
16384;DHT22;8301;51.440;6.610;2022-07-29T02:51:07;17.40;99.90
16384;DHT22;8301;51.440;6.610;2022-07-29T02:53:33;17.40;99.90
16384;DHT22;8301;51.440;6.610;2022-07-29T02:56:06;17.40;99.90
16384;DHT22;8301;51.440;6.610;2022-07-29T02:58:33;17.30;99.90
16384;DHT22;8301;51.440;6.610;2022-07-29T03:01:02;17.20;99.90
16384;DHT22;8301;51.440;6.610;2022-07-29T03:03:34;17.10;99.90
16384;DHT22;8301;51.440;6.610;2022-07-29T03:05:57;17.00;99.90
16384;DHT22;8301;51.440;6.610;2022-07-29T03:08:26;17.00;99.90
16384;DHT22;8301;51.440;6.610;2022-07-29T03:10:54;16.90;99.90
16384;DHT22;8301;51.440;6.610;2022-07-29T03:13:21;16.90;99.90
16384;DHT22;8301;51.440;6.610;2022-07-29T03:15:49;16.90;99.90
16384;DHT22;8301;51.440;6.610;2022-07-29T03:18:16;16.90;99.90
16384;DHT22;8301;51.440;6.610;2022-07-29T03:20:43;16.90;99.90
16384;DHT22;8301;51.440;6.610;2022-07-29T03:23:19;16.80;99.90
16384;DHT22;8301;51.440;6.610;2022-07-29T03:25:48;16.80;99.90
16384;DHT22;8301;51.440;6.610;2022-07-29T03:28:15;16.80;99.90
16384;DHT22;8301;51.440;6.610;2022-07-29T03:30:42;16.80;99.90
16384;DHT22;8301;51.440;6.610;2022-07-29T03:33:09;16.80;99.90
16384;DHT22;8301;51.440;6.610;2022-07-29T03:35:36;16.90;99.90
16384;DHT22;8301;51.440;6.610;2022-07-29T03:38:03;16.90;99.90
16384;DHT22;8301;51.440;6.610;2022-07-29T03:40:44;16.90;99.90
16384;DHT22;8301;51.440;6.610;2022-07-29T03:43:11;16.90;99.90
16384;DHT22;8301;51.440;6.610;2022-07-29T03:45:39;17.00;99.90
16384;DHT22;8301;51.440;6.610;2022-07-29T03:48:11;17.00;99.90
16384;DHT22;8301;51.440;6.610;2022-07-29T03:50:39;17.00;99.90
16384;DHT22;8301;51.440;6.610;2022-07-29T03:53:07;17.00;99.90
16384;DHT22;8301;51.440;6.610;2022-07-29T03:55:40;17.00;99.90
16384;DHT22;8301;51.440;6.610;2022-07-29T03:58:05;17.10;99.90
16384;DHT22;8301;51.440;6.610;2022-07-29T04:00:34;17.10;99.90
16384;DHT22;8301;51.440;6.610;2022-07-29T04:03:02;16.90;99.90
16384;DHT22;8301;51.440;6.610;2022-07-29T04:05:31;16.70;99.90
16384;DHT22;8301;51.440;6.610;2022-07-29T04:07:58;16.60;99.90
16384;DHT22;8301;51.440;6.610;2022-07-29T04:10:24;16.20;99.90
16384;DHT22;8301;51.440;6.610;2022-07-29T04:12:51;16.20;99.90
16384;DHT22;8301;51.440;6.610;2022-07-29T04:15:19;16.10;99.90
16384;DHT22;8301;51.440;6.610;2022-07-29T04:17:45;16.00;99.90
16384;DHT22;8301;51.440;6.610;2022-07-29T04:20:12;16.00;99.90
16384;DHT22;8301;51.440;6.610;2022-07-29T04:22:45;16.10;99.90
16384;DHT22;8301;51.440;6.610;2022-07-29T04:25:12;16.00;99.90
16384;DHT22;8301;51.440;6.610;2022-07-29T04:27:41;16.00;99.90
16384;DHT22;8301;51.440;6.610;2022-07-29T04:30:09;16.00;99.90
16384;DHT22;8301;51.440;6.610;2022-07-29T04:32:36;16.00;99.90
16384;DHT22;8301;51.440;6.610;2022-07-29T04:35:03;15.80;99.90
16384;DHT22;8301;51.440;6.610;2022-07-29T04:37:30;15.50;99.90
16384;DHT22;8301;51.440;6.610;2022-07-29T04:42:36;15.30;99.90
16384;DHT22;8301;51.440;6.610;2022-07-29T04:45:03;15.10;99.90
16384;DHT22;8301;51.440;6.610;2022-07-29T04:47:30;15.10;99.90
16384;DHT22;8301;51.440;6.610;2022-07-29T04:49:56;15.10;99.90
16384;DHT22;8301;51.440;6.610;2022-07-29T04:52:23;15.10;99.90
16384;DHT22;8301;51.440;6.610;2022-07-29T04:54:50;15.20;99.90
16384;DHT22;8301;51.440;6.610;2022-07-29T04:57:17;15.10;99.90
16384;DHT22;8301;51.440;6.610;2022-07-29T04:59:44;15.10;99.90
16384;DHT22;8301;51.440;6.610;2022-07-29T05:02:10;15.00;99.90
16384;DHT22;8301;51.440;6.610;2022-07-29T05:04:37;15.10;99.90
16384;DHT22;8301;51.440;6.610;2022-07-29T05:07:04;15.20;99.90
16384;DHT22;8301;51.440;6.610;2022-07-29T05:09:31;15.20;99.90
16384;DHT22;8301;51.440;6.610;2022-07-29T05:11:58;15.30;99.90
16384;DHT22;8301;51.440;6.610;2022-07-29T05:14:24;15.20;99.90
16384;DHT22;8301;51.440;6.610;2022-07-29T05:16:51;15.20;99.90
16384;DHT22;8301;51.440;6.610;2022-07-29T05:19:20;15.20;99.90
16384;DHT22;8301;51.440;6.610;2022-07-29T05:21:47;15.20;99.90
16384;DHT22;8301;51.440;6.610;2022-07-29T05:24:13;15.10;99.90
16384;DHT22;8301;51.440;6.610;2022-07-29T05:26:40;15.00;99.90
16384;DHT22;8301;51.440;6.610;2022-07-29T05:29:07;15.00;99.90
16384;DHT22;8301;51.440;6.610;2022-07-29T05:31:34;15.00;99.90
16384;DHT22;8301;51.440;6.610;2022-07-29T05:34:01;15.00;99.90
16384;DHT22;8301;51.440;6.610;2022-07-29T05:36:28;15.00;99.90
16384;DHT22;8301;51.440;6.610;2022-07-29T05:38:55;15.00;99.90
16384;DHT22;8301;51.440;6.610;2022-07-29T05:41:23;15.00;99.90
16384;DHT22;8301;51.440;6.610;2022-07-29T05:43:50;15.00;99.90
16384;DHT22;8301;51.440;6.610;2022-07-29T05:46:16;15.00;99.90
16384;DHT22;8301;51.440;6.610;2022-07-29T05:48:43;14.90;99.90
16384;DHT22;8301;51.440;6.610;2022-07-29T05:51:10;15.00;99.90
16384;DHT22;8301;51.440;6.610;2022-07-29T05:53:37;15.10;99.90
16384;DHT22;8301;51.440;6.610;2022-07-29T05:56:04;15.20;99.90
16384;DHT22;8301;51.440;6.610;2022-07-29T05:58:31;15.20;99.90
16384;DHT22;8301;51.440;6.610;2022-07-29T06:00:58;15.30;99.90
16384;DHT22;8301;51.440;6.610;2022-07-29T06:03:26;15.20;99.90
16384;DHT22;8301;51.440;6.610;2022-07-29T06:05:53;15.20;99.90
16384;DHT22;8301;51.440;6.610;2022-07-29T06:08:19;15.10;99.90
16384;DHT22;8301;51.440;6.610;2022-07-29T06:10:46;15.10;99.90
16384;DHT22;8301;51.440;6.610;2022-07-29T06:13:13;15.20;99.90
16384;DHT22;8301;51.440;6.610;2022-07-29T06:15:42;15.10;99.90
16384;DHT22;8301;51.440;6.610;2022-07-29T06:18:09;15.20;99.90
16384;DHT22;8301;51.440;6.610;2022-07-29T06:20:36;15.20;99.90
16384;DHT22;8301;51.440;6.610;2022-07-29T06:23:03;15.30;99.90
16384;DHT22;8301;51.440;6.610;2022-07-29T06:25:30;15.30;99.90
16384;DHT22;8301;51.440;6.610;2022-07-29T06:27:58;15.40;99.90
16384;DHT22;8301;51.440;6.610;2022-07-29T06:30:25;15.50;99.90
16384;DHT22;8301;51.440;6.610;2022-07-29T06:32:52;15.60;99.90
16384;DHT22;8301;51.440;6.610;2022-07-29T06:35:19;15.60;99.90
16384;DHT22;8301;51.440;6.610;2022-07-29T06:37:46;15.60;99.90
16384;DHT22;8301;51.440;6.610;2022-07-29T06:40:13;15.70;99.90
16384;DHT22;8301;51.440;6.610;2022-07-29T06:42:58;15.70;99.90
16384;DHT22;8301;51.440;6.610;2022-07-29T06:45:25;15.70;99.90
16384;DHT22;8301;51.440;6.610;2022-07-29T06:47:52;15.70;99.90
16384;DHT22;8301;51.440;6.610;2022-07-29T06:50:19;15.60;99.90
16384;DHT22;8301;51.440;6.610;2022-07-29T06:52:46;15.60;99.90
16384;DHT22;8301;51.440;6.610;2022-07-29T06:55:12;15.50;99.90
16384;DHT22;8301;51.440;6.610;2022-07-29T06:57:40;15.50;99.90
16384;DHT22;8301;51.440;6.610;2022-07-29T07:00:07;15.50;99.90
16384;DHT22;8301;51.440;6.610;2022-07-29T07:02:34;15.50;99.90
16384;DHT22;8301;51.440;6.610;2022-07-29T07:05:01;15.50;99.90
16384;DHT22;8301;51.440;6.610;2022-07-29T07:07:27;15.50;99.90
16384;DHT22;8301;51.440;6.610;2022-07-29T07:09:54;15.50;99.90
16384;DHT22;8301;51.440;6.610;2022-07-29T07:12:21;15.40;99.90
16384;DHT22;8301;51.440;6.610;2022-07-29T07:14:48;15.40;99.90
16384;DHT22;8301;51.440;6.610;2022-07-29T07:17:15;15.40;99.90
16384;DHT22;8301;51.440;6.610;2022-07-29T07:19:42;15.40;99.90
16384;DHT22;8301;51.440;6.610;2022-07-29T07:22:16;15.40;99.90
16384;DHT22;8301;51.440;6.610;2022-07-29T07:24:43;15.50;99.90
16384;DHT22;8301;51.440;6.610;2022-07-29T07:27:10;15.50;99.90
16384;DHT22;8301;51.440;6.610;2022-07-29T07:29:37;15.60;99.90
16384;DHT22;8301;51.440;6.610;2022-07-29T07:32:05;15.70;99.90
16384;DHT22;8301;51.440;6.610;2022-07-29T07:34:32;15.50;99.90
16384;DHT22;8301;51.440;6.610;2022-07-29T07:36:59;15.60;99.90
16384;DHT22;8301;51.440;6.610;2022-07-29T07:39:26;15.70;99.90
16384;DHT22;8301;51.440;6.610;2022-07-29T07:41:53;15.80;99.90
16384;DHT22;8301;51.440;6.610;2022-07-29T07:44:19;15.80;99.90
16384;DHT22;8301;51.440;6.610;2022-07-29T07:46:46;15.90;99.90
16384;DHT22;8301;51.440;6.610;2022-07-29T07:49:13;15.90;99.90
16384;DHT22;8301;51.440;6.610;2022-07-29T07:51:40;16.00;99.90
16384;DHT22;8301;51.440;6.610;2022-07-29T07:54:07;15.90;99.90
16384;DHT22;8301;51.440;6.610;2022-07-29T07:56:34;15.90;99.90
16384;DHT22;8301;51.440;6.610;2022-07-29T07:59:00;15.90;99.90
16384;DHT22;8301;51.440;6.610;2022-07-29T08:01:28;15.90;99.90
16384;DHT22;8301;51.440;6.610;2022-07-29T08:03:55;15.90;99.90
16384;DHT22;8301;51.440;6.610;2022-07-29T08:06:32;15.90;99.90
16384;DHT22;8301;51.440;6.610;2022-07-29T08:09:00;16.00;99.90
16384;DHT22;8301;51.440;6.610;2022-07-29T08:11:27;16.00;99.90
16384;DHT22;8301;51.440;6.610;2022-07-29T08:13:54;15.90;99.90
16384;DHT22;8301;51.440;6.610;2022-07-29T08:16:21;15.90;99.90
16384;DHT22;8301;51.440;6.610;2022-07-29T08:18:50;15.90;99.90
16384;DHT22;8301;51.440;6.610;2022-07-29T08:21:18;15.90;99.90
16384;DHT22;8301;51.440;6.610;2022-07-29T08:23:50;15.90;99.90
16384;DHT22;8301;51.440;6.610;2022-07-29T08:26:21;15.90;99.90
16384;DHT22;8301;51.440;6.610;2022-07-29T08:28:49;15.80;99.90
16384;DHT22;8301;51.440;6.610;2022-07-29T08:31:16;15.80;99.90
16384;DHT22;8301;51.440;6.610;2022-07-29T08:33:44;15.80;99.90
16384;DHT22;8301;51.440;6.610;2022-07-29T08:36:12;15.70;99.90
16384;DHT22;8301;51.440;6.610;2022-07-29T08:38:39;15.80;99.90
16384;DHT22;8301;51.440;6.610;2022-07-29T08:41:06;15.80;99.90
16384;DHT22;8301;51.440;6.610;2022-07-29T08:43:33;15.70;99.90
16384;DHT22;8301;51.440;6.610;2022-07-29T08:46:01;15.80;99.90
16384;DHT22;8301;51.440;6.610;2022-07-29T08:48:28;15.80;99.90
16384;DHT22;8301;51.440;6.610;2022-07-29T08:50:55;15.90;99.90
16384;DHT22;8301;51.440;6.610;2022-07-29T08:53:23;16.00;99.90
16384;DHT22;8301;51.440;6.610;2022-07-29T08:55:52;16.10;99.90
16384;DHT22;8301;51.440;6.610;2022-07-29T08:58:19;16.30;99.90
16384;DHT22;8301;51.440;6.610;2022-07-29T09:00:50;16.30;99.90
16384;DHT22;8301;51.440;6.610;2022-07-29T09:03:17;16.50;99.90
16384;DHT22;8301;51.440;6.610;2022-07-29T09:08:15;16.80;99.90
16384;DHT22;8301;51.440;6.610;2022-07-29T09:10:42;16.90;99.90
16384;DHT22;8301;51.440;6.610;2022-07-29T09:13:09;17.00;99.90
16384;DHT22;8301;51.440;6.610;2022-07-29T09:15:42;17.10;99.90
16384;DHT22;8301;51.440;6.610;2022-07-29T09:18:08;17.10;99.90
16384;DHT22;8301;51.440;6.610;2022-07-29T09:20:35;17.20;99.90
16384;DHT22;8301;51.440;6.610;2022-07-29T09:23:20;17.30;99.90
16384;DHT22;8301;51.440;6.610;2022-07-29T09:25:47;17.40;99.90
16384;DHT22;8301;51.440;6.610;2022-07-29T09:28:15;17.40;99.90
16384;DHT22;8301;51.440;6.610;2022-07-29T09:30:55;17.30;99.90
16384;DHT22;8301;51.440;6.610;2022-07-29T09:33:24;17.30;99.90
16384;DHT22;8301;51.440;6.610;2022-07-29T09:35:58;17.50;99.90
16384;DHT22;8301;51.440;6.610;2022-07-29T09:38:26;17.70;99.90
16384;DHT22;8301;51.440;6.610;2022-07-29T09:40:57;17.90;99.90
16384;DHT22;8301;51.440;6.610;2022-07-29T09:43:24;17.90;99.90
16384;DHT22;8301;51.440;6.610;2022-07-29T09:45:51;17.90;99.90
16384;DHT22;8301;51.440;6.610;2022-07-29T09:48:19;18.00;99.90
16384;DHT22;8301;51.440;6.610;2022-07-29T09:50:48;18.10;99.90
16384;DHT22;8301;51.440;6.610;2022-07-29T09:53:37;18.20;99.90
16384;DHT22;8301;51.440;6.610;2022-07-29T09:55:51;18.30;99.90
16384;DHT22;8301;51.440;6.610;2022-07-29T09:58:16;18.30;99.90
16384;DHT22;8301;51.440;6.610;2022-07-29T10:00:43;18.50;99.90
16384;DHT22;8301;51.440;6.610;2022-07-29T10:03:11;18.40;99.90
16384;DHT22;8301;51.440;6.610;2022-07-29T10:05:38;18.40;99.90
16384;DHT22;8301;51.440;6.610;2022-07-29T10:08:08;18.20;99.90
16384;DHT22;8301;51.440;6.610;2022-07-29T10:10:37;18.10;99.90
16384;DHT22;8301;51.440;6.610;2022-07-29T10:13:08;18.20;99.90
16384;DHT22;8301;51.440;6.610;2022-07-29T10:15:38;18.20;99.90
16384;DHT22;8301;51.440;6.610;2022-07-29T10:18:07;18.00;99.90
16384;DHT22;8301;51.440;6.610;2022-07-29T10:20:34;18.10;99.90
16384;DHT22;8301;51.440;6.610;2022-07-29T10:23:01;18.10;99.90
16384;DHT22;8301;51.440;6.610;2022-07-29T10:25:28;18.10;99.90
16384;DHT22;8301;51.440;6.610;2022-07-29T10:27:55;18.00;99.90
16384;DHT22;8301;51.440;6.610;2022-07-29T10:30:23;18.20;99.90
16384;DHT22;8301;51.440;6.610;2022-07-29T10:35:37;19.00;99.90
16384;DHT22;8301;51.440;6.610;2022-07-29T10:38:10;19.30;99.90
16384;DHT22;8301;51.440;6.610;2022-07-29T10:40:43;19.20;99.90
16384;DHT22;8301;51.440;6.610;2022-07-29T10:43:26;19.60;99.90
16384;DHT22;8301;51.440;6.610;2022-07-29T10:45:58;20.30;99.90
16384;DHT22;8301;51.440;6.610;2022-07-29T10:48:24;20.80;99.90
16384;DHT22;8301;51.440;6.610;2022-07-29T10:50:55;21.00;99.90
16384;DHT22;8301;51.440;6.610;2022-07-29T10:53:23;21.20;99.90
16384;DHT22;8301;51.440;6.610;2022-07-29T10:55:51;21.40;99.90
16384;DHT22;8301;51.440;6.610;2022-07-29T10:58:22;21.30;99.90
16384;DHT22;8301;51.440;6.610;2022-07-29T11:00:50;21.30;99.90
16384;DHT22;8301;51.440;6.610;2022-07-29T11:06:02;21.30;99.90
16384;DHT22;8301;51.440;6.610;2022-07-29T11:08:29;21.80;99.90
16384;DHT22;8301;51.440;6.610;2022-07-29T11:11:42;21.80;99.90
16384;DHT22;8301;51.440;6.610;2022-07-29T11:16:16;21.60;99.90
16384;DHT22;8301;51.440;6.610;2022-07-29T11:21:36;21.50;99.90
16384;DHT22;8301;51.440;6.610;2022-07-29T11:24:17;21.50;99.90
16384;DHT22;8301;51.440;6.610;2022-07-29T11:26:46;21.70;99.90
16384;DHT22;8301;51.440;6.610;2022-07-29T11:31:43;21.70;99.90
16384;DHT22;8301;51.440;6.610;2022-07-29T11:37:30;21.50;99.90
16384;DHT22;8301;51.440;6.610;2022-07-29T11:39:25;21.80;99.90
16384;DHT22;8301;51.440;6.610;2022-07-29T11:45:25;21.90;99.90
16384;DHT22;8301;51.440;6.610;2022-07-29T11:47:06;21.90;99.90
16384;DHT22;8301;51.440;6.610;2022-07-29T11:49:35;21.70;99.90
16384;DHT22;8301;51.440;6.610;2022-07-29T11:52:02;21.80;99.90
16384;DHT22;8301;51.440;6.610;2022-07-29T11:54:34;22.10;99.90
16384;DHT22;8301;51.440;6.610;2022-07-29T11:56:58;21.60;99.90
16384;DHT22;8301;51.440;6.610;2022-07-29T11:59:25;21.50;99.90
16384;DHT22;8301;51.440;6.610;2022-07-29T12:01:58;21.70;99.90
16384;DHT22;8301;51.440;6.610;2022-07-29T12:04:21;21.70;99.90
16384;DHT22;8301;51.440;6.610;2022-07-29T12:06:50;21.50;99.90
16384;DHT22;8301;51.440;6.610;2022-07-29T12:09:26;21.70;99.90
16384;DHT22;8301;51.440;6.610;2022-07-29T12:11:56;21.70;99.90
16384;DHT22;8301;51.440;6.610;2022-07-29T12:14:29;21.60;99.90
16384;DHT22;8301;51.440;6.610;2022-07-29T12:16:57;21.80;99.90
16384;DHT22;8301;51.440;6.610;2022-07-29T12:19:24;21.80;99.90
16384;DHT22;8301;51.440;6.610;2022-07-29T12:22:00;21.80;99.90
16384;DHT22;8301;51.440;6.610;2022-07-29T12:24:45;21.90;99.90
16384;DHT22;8301;51.440;6.610;2022-07-29T12:27:16;21.60;99.90
16384;DHT22;8301;51.440;6.610;2022-07-29T12:29:42;21.50;99.90
16384;DHT22;8301;51.440;6.610;2022-07-29T12:32:09;21.60;99.90
16384;DHT22;8301;51.440;6.610;2022-07-29T12:34:35;21.50;99.90
16384;DHT22;8301;51.440;6.610;2022-07-29T12:37:02;21.50;99.90
16384;DHT22;8301;51.440;6.610;2022-07-29T12:39:30;21.40;99.90
16384;DHT22;8301;51.440;6.610;2022-07-29T12:41:57;21.40;99.90
16384;DHT22;8301;51.440;6.610;2022-07-29T12:44:23;21.50;99.90
16384;DHT22;8301;51.440;6.610;2022-07-29T12:47:03;21.40;99.90
16384;DHT22;8301;51.440;6.610;2022-07-29T12:49:30;21.40;99.90
16384;DHT22;8301;51.440;6.610;2022-07-29T12:51:58;21.50;99.90
16384;DHT22;8301;51.440;6.610;2022-07-29T12:54:24;21.60;99.90
16384;DHT22;8301;51.440;6.610;2022-07-29T12:56:58;21.50;99.90
16384;DHT22;8301;51.440;6.610;2022-07-29T12:59:20;21.60;99.90
16384;DHT22;8301;51.440;6.610;2022-07-29T13:01:49;21.50;99.90
16384;DHT22;8301;51.440;6.610;2022-07-29T13:07:04;21.40;99.90
16384;DHT22;8301;51.440;6.610;2022-07-29T13:09:40;21.30;99.90
16384;DHT22;8301;51.440;6.610;2022-07-29T13:12:08;21.30;99.90
16384;DHT22;8301;51.440;6.610;2022-07-29T13:14:38;21.30;99.90
16384;DHT22;8301;51.440;6.610;2022-07-29T13:17:06;21.40;99.90
16384;DHT22;8301;51.440;6.610;2022-07-29T13:19:37;21.40;99.90
16384;DHT22;8301;51.440;6.610;2022-07-29T13:22:16;21.30;99.90
16384;DHT22;8301;51.440;6.610;2022-07-29T13:24:46;21.30;99.90
16384;DHT22;8301;51.440;6.610;2022-07-29T13:27:04;21.40;99.90
16384;DHT22;8301;51.440;6.610;2022-07-29T13:29:34;21.60;99.90
16384;DHT22;8301;51.440;6.610;2022-07-29T13:32:02;21.60;99.90
16384;DHT22;8301;51.440;6.610;2022-07-29T13:34:29;21.50;99.90
16384;DHT22;8301;51.440;6.610;2022-07-29T13:36:56;21.60;99.90
16384;DHT22;8301;51.440;6.610;2022-07-29T13:39:24;21.60;99.90
16384;DHT22;8301;51.440;6.610;2022-07-29T13:41:51;21.80;99.90
16384;DHT22;8301;51.440;6.610;2022-07-29T13:44:18;21.80;99.90
16384;DHT22;8301;51.440;6.610;2022-07-29T13:46:45;21.90;99.90
16384;DHT22;8301;51.440;6.610;2022-07-29T13:49:12;22.00;99.90
16384;DHT22;8301;51.440;6.610;2022-07-29T13:51:38;22.20;99.90
16384;DHT22;8301;51.440;6.610;2022-07-29T13:54:05;22.50;99.90
16384;DHT22;8301;51.440;6.610;2022-07-29T13:56:32;22.80;99.90
16384;DHT22;8301;51.440;6.610;2022-07-29T13:59:00;22.90;99.90
16384;DHT22;8301;51.440;6.610;2022-07-29T14:01:26;22.90;99.90
16384;DHT22;8301;51.440;6.610;2022-07-29T14:03:59;23.10;99.90
16384;DHT22;8301;51.440;6.610;2022-07-29T14:06:27;23.40;99.90
16384;DHT22;8301;51.440;6.610;2022-07-29T14:08:54;23.70;99.90
16384;DHT22;8301;51.440;6.610;2022-07-29T14:11:20;24.00;99.90
16384;DHT22;8301;51.440;6.610;2022-07-29T14:13:47;23.90;99.90
16384;DHT22;8301;51.440;6.610;2022-07-29T14:16:17;24.00;99.90
16384;DHT22;8301;51.440;6.610;2022-07-29T14:18:42;24.10;99.90
16384;DHT22;8301;51.440;6.610;2022-07-29T14:21:09;24.10;99.90
16384;DHT22;8301;51.440;6.610;2022-07-29T14:23:36;24.10;99.90
16384;DHT22;8301;51.440;6.610;2022-07-29T14:26:07;24.30;99.90
16384;DHT22;8301;51.440;6.610;2022-07-29T14:28:34;24.50;99.90
16384;DHT22;8301;51.440;6.610;2022-07-29T14:31:01;24.50;99.90
16384;DHT22;8301;51.440;6.610;2022-07-29T14:33:27;24.70;99.90
16384;DHT22;8301;51.440;6.610;2022-07-29T14:35:54;24.60;99.90
16384;DHT22;8301;51.440;6.610;2022-07-29T14:38:21;24.60;99.90
16384;DHT22;8301;51.440;6.610;2022-07-29T14:40:48;24.70;99.90
16384;DHT22;8301;51.440;6.610;2022-07-29T14:43:15;24.80;99.90
16384;DHT22;8301;51.440;6.610;2022-07-29T14:45:42;24.90;99.90
16384;DHT22;8301;51.440;6.610;2022-07-29T14:48:08;24.80;99.90
16384;DHT22;8301;51.440;6.610;2022-07-29T14:50:37;24.80;99.90
16384;DHT22;8301;51.440;6.610;2022-07-29T14:53:04;24.90;99.90
16384;DHT22;8301;51.440;6.610;2022-07-29T14:55:32;25.10;99.90
16384;DHT22;8301;51.440;6.610;2022-07-29T14:57:59;24.70;99.90
16384;DHT22;8301;51.440;6.610;2022-07-29T15:00:25;24.80;99.90
16384;DHT22;8301;51.440;6.610;2022-07-29T15:02:52;24.70;99.90
16384;DHT22;8301;51.440;6.610;2022-07-29T15:05:19;24.90;99.90
16384;DHT22;8301;51.440;6.610;2022-07-29T15:07:46;24.90;99.90
16384;DHT22;8301;51.440;6.610;2022-07-29T15:10:13;24.60;99.90
16384;DHT22;8301;51.440;6.610;2022-07-29T15:12:41;24.50;99.90
16384;DHT22;8301;51.440;6.610;2022-07-29T15:15:07;25.00;99.90
16384;DHT22;8301;51.440;6.610;2022-07-29T15:17:34;25.40;99.90
16384;DHT22;8301;51.440;6.610;2022-07-29T15:20:01;25.40;99.90
16384;DHT22;8301;51.440;6.610;2022-07-29T15:22:30;25.60;99.90
16384;DHT22;8301;51.440;6.610;2022-07-29T15:24:57;25.50;99.90
16384;DHT22;8301;51.440;6.610;2022-07-29T15:27:23;25.30;99.90
16384;DHT22;8301;51.440;6.610;2022-07-29T15:29:51;25.40;99.90
16384;DHT22;8301;51.440;6.610;2022-07-29T15:32:18;25.20;99.90
16384;DHT22;8301;51.440;6.610;2022-07-29T15:34:45;25.20;99.90
16384;DHT22;8301;51.440;6.610;2022-07-29T15:37:13;25.40;99.90
16384;DHT22;8301;51.440;6.610;2022-07-29T15:39:39;25.40;99.90
16384;DHT22;8301;51.440;6.610;2022-07-29T15:42:06;25.30;99.90
16384;DHT22;8301;51.440;6.610;2022-07-29T15:44:35;25.20;99.90
16384;DHT22;8301;51.440;6.610;2022-07-29T15:47:02;25.20;99.90
16384;DHT22;8301;51.440;6.610;2022-07-29T15:49:36;25.10;99.90
16384;DHT22;8301;51.440;6.610;2022-07-29T15:52:04;25.10;99.90
16384;DHT22;8301;51.440;6.610;2022-07-29T15:54:33;24.90;99.90
16384;DHT22;8301;51.440;6.610;2022-07-29T15:57:01;24.80;99.90
16384;DHT22;8301;51.440;6.610;2022-07-29T15:59:27;24.80;99.90
16384;DHT22;8301;51.440;6.610;2022-07-29T16:01:54;24.80;99.90
16384;DHT22;8301;51.440;6.610;2022-07-29T16:04:21;24.80;99.90
16384;DHT22;8301;51.440;6.610;2022-07-29T16:06:49;24.60;99.90
16384;DHT22;8301;51.440;6.610;2022-07-29T16:09:16;24.50;99.90
16384;DHT22;8301;51.440;6.610;2022-07-29T16:11:43;24.40;99.90
16384;DHT22;8301;51.440;6.610;2022-07-29T16:14:12;24.30;99.90
16384;DHT22;8301;51.440;6.610;2022-07-29T16:16:39;24.10;99.90
16384;DHT22;8301;51.440;6.610;2022-07-29T16:19:06;24.30;99.90
16384;DHT22;8301;51.440;6.610;2022-07-29T16:21:35;24.30;99.90
16384;DHT22;8301;51.440;6.610;2022-07-29T16:24:02;24.30;99.90
16384;DHT22;8301;51.440;6.610;2022-07-29T16:26:29;24.30;99.90
16384;DHT22;8301;51.440;6.610;2022-07-29T16:28:56;24.40;99.90